Time;durP1;ratioP1;P1;durP2;ratioP2;P2;SDS_P1;SDS_P2;PMS_P1;PMS_P2;Temp;Humidity;BMP_temperature;BMP_pressure;BME280_temperature;BME280_humidity;BME280_pressure;Samples;Min_cycle;Max_cycle;Signal;HPM_P1;HPM_P2
2024/04/09 00:08:55;;;;;;;4.50;2.20;;;;;;;15.05;63.79;99051.38;446275;1240;139707;-61
2024/04/09 00:18:59;;;;;;;3.50;1.70;;;;;;;15.04;64.09;99044.76;445866;1236;466211;-60
2024/04/09 00:29:05;;;;;;;3.50;1.80;;;;;;;15.08;64.16;99034.98;446760;1240;139071;-59
2024/04/09 00:39:19;;;;;;;2.00;1.90;;;;;;;15.16;64.09;99032.23;447523;1240;138625;-59
2024/04/09 00:49:24;;;;;;;1.40;1.30;;;;;;;15.33;63.91;99021.66;446656;1239;139443;-59
2024/04/09 00:59:31;;;;;;;5.10;2.30;;;;;;;15.52;63.50;99018.85;447581;1240;138549;-59
2024/04/09 01:09:41;;;;;;;2.40;1.80;;;;;;;15.63;63.12;99012.19;446184;1238;139248;-59
2024/04/09 01:19:45;;;;;;;2.80;1.70;;;;;;;15.66;62.79;99014.64;447344;1238;138726;-61
2024/04/09 01:29:49;;;;;;;2.60;1.90;;;;;;;15.73;62.56;99013.20;447575;1236;138997;-59
2024/04/09 01:39:52;;;;;;;2.00;1.80;;;;;;;15.78;62.28;99015.88;446368;1241;139341;-59
2024/04/09 01:49:57;;;;;;;4.00;2.20;;;;;;;15.77;62.09;99016.96;446993;1238;139226;-58
2024/04/09 02:00:06;;;;;;;1.70;1.60;;;;;;;15.72;61.94;99019.77;447144;1238;139163;-58
2024/04/09 02:10:09;;;;;;;3.60;1.80;;;;;;;15.61;62.05;99021.19;446197;1241;138865;-58
2024/04/09 02:20:13;;;;;;;4.20;2.30;;;;;;;15.48;62.12;99017.98;446486;1241;139065;-60
2024/04/09 02:30:17;;;;;;;2.50;2.30;;;;;;;15.38;62.31;99020.42;446800;1237;139225;-60
2024/04/09 02:40:20;;;;;;;2.80;2.10;;;;;;;15.26;62.39;99024.17;446680;1240;138594;-63
2024/04/09 02:50:23;;;;;;;3.40;2.60;;;;;;;15.20;62.42;99025.64;446045;1236;139007;-64
2024/04/09 03:00:28;;;;;;;6.00;3.10;;;;;;;15.14;62.70;99031.16;446990;1238;138496;-60
2024/04/09 03:10:34;;;;;;;4.40;3.30;;;;;;;15.06;62.87;99032.63;449570;1239;138822;-61
2024/04/09 03:20:38;;;;;;;4.70;3.50;;;;;;;14.94;63.24;99033.86;446420;1238;139310;-61
2024/04/09 03:30:41;;;;;;;5.40;4.60;;;;;;;14.75;63.67;99031.48;446333;1240;137584;-60
2024/04/09 03:40:53;;;;;;;8.30;5.70;;;;;;;14.51;64.32;99031.34;446281;1236;138830;-61
2024/04/09 03:50:58;;;;;;;7.30;5.50;;;;;;;14.28;64.87;99031.52;447624;1240;139339;-58
2024/04/09 04:01:03;;;;;;;10.40;5.80;;;;;;;14.13;65.43;99029.52;447107;1240;139230;-58
2024/04/09 04:11:13;;;;;;;8.10;5.40;;;;;;;14.02;65.94;99030.27;446880;1240;139419;-61
2024/04/09 04:21:18;;;;;;;11.20;6.70;;;;;;;14.00;66.53;99035.02;446795;1240;140440;-60
2024/04/09 04:31:23;;;;;;;8.30;7.10;;;;;;;14.10;66.84;99032.95;446384;1241;140430;-63
2024/04/09 04:41:26;;;;;;;7.90;6.60;;;;;;;14.28;67.08;99034.35;446509;1240;139778;-63
2024/04/09 04:51:30;;;;;;;13.20;6.70;;;;;;;14.65;67.02;99034.25;447413;1240;140997;-59
2024/04/09 05:01:33;;;;;;;6.60;5.90;;;;;;;15.10;66.44;99031.83;446064;1239;139436;-60
2024/04/09 05:11:36;;;;;;;6.40;5.50;;;;;;;15.48;65.72;99026.97;447355;1240;139398;-59
2024/04/09 05:21:40;;;;;;;7.70;6.10;;;;;;;16.03;65.02;99023.07;446496;1240;140065;-60
2024/04/09 05:31:44;;;;;;;5.60;5.00;;;;;;;17.20;63.64;99018.41;446235;1242;139494;-59
2024/04/09 05:41:54;;;;;;;12.40;5.80;;;;;;;19.09;61.52;99015.26;447998;1239;138763;-59
2024/04/09 05:51:57;;;;;;;8.50;5.30;;;;;;;20.85;57.67;99021.63;446614;1240;139206;-61
2024/04/09 06:02:01;;;;;;;6.00;4.80;;;;;;;23.08;54.63;99013.95;447074;1240;138631;-62
2024/04/09 06:12:05;;;;;;;8.50;5.10;;;;;;;24.34;50.42;99011.94;461149;1236;138665;-61
2024/04/09 06:22:09;;;;;;;10.10;4.90;;;;;;;26.53;47.74;99002.92;461141;1240;139789;-64
2024/04/09 06:32:13;;;;;;;14.50;7.50;;;;;;;28.45;44.36;98997.08;461071;1236;138931;-60
2024/04/09 06:42:16;;;;;;;5.40;2.90;;;;;;;30.22;41.84;98997.05;461185;1240;138604;-64
2024/04/09 06:52:19;;;;;;;7.40;2.40;;;;;;;31.73;38.51;98991.11;461127;1236;138946;-74
2024/04/09 07:02:22;;;;;;;5.70;3.00;;;;;;;33.73;36.16;99000.35;461117;1240;139239;-64
2024/04/09 07:12:25;;;;;;;4.80;2.10;;;;;;;36.45;33.39;98994.34;461141;1240;139643;-62
2024/04/09 07:22:29;;;;;;;5.50;3.10;;;;;;;38.76;30.56;98990.55;461178;1240;138870;-61
2024/04/09 07:32:32;;;;;;;3.40;2.20;;;;;;;40.67;28.15;98996.71;461082;1238;138417;-60
2024/04/09 07:42:36;;;;;;;10.70;4.10;;;;;;;41.83;26.11;98997.00;450910;1239;138572;-61
2024/04/09 07:52:39;;;;;;;8.60;2.80;;;;;;;43.17;24.84;99000.33;448632;1238;139072;-62
2024/04/09 08:02:42;;;;;;;4.70;2.70;;;;;;;44.77;23.61;98995.75;447943;1241;138692;-62
2024/04/09 08:12:49;;;;;;;7.00;2.70;;;;;;;45.90;22.18;98999.14;460958;1240;138468;-61
2024/04/09 08:22:53;;;;;;;4.60;2.50;;;;;;;46.89;21.33;98999.91;461122;1238;138433;-66
2024/04/09 08:32:56;;;;;;;5.90;1.80;;;;;;;46.28;20.64;98992.83;452150;1240;139106;-75
2024/04/09 08:43:00;;;;;;;3.40;2.30;;;;;;;42.83;20.71;98984.31;447192;1240;138525;-60
2024/04/09 08:53:04;;;;;;;4.10;2.10;;;;;;;38.93;22.42;98978.65;447385;1241;138760;-58
2024/04/09 09:03:07;;;;;;;4.70;2.00;;;;;;;36.25;23.88;98970.75;447123;1240;138814;-58
2024/04/09 09:13:12;;;;;;;6.00;2.60;;;;;;;34.38;25.61;98967.30;447016;1240;139269;-67
2024/04/09 09:23:19;;;;;;;2.40;2.00;;;;;;;33.05;26.76;98964.75;447175;1241;139129;-62
2024/04/09 09:33:26;;;;;;;3.80;1.60;;;;;;;31.93;27.68;98961.88;447339;1240;139075;-63
2024/04/09 09:43:31;;;;;;;3.10;1.70;;;;;;;31.10;28.89;98954.20;448515;1238;139226;-61
2024/04/09 09:53:35;;;;;;;2.20;1.60;;;;;;;30.37;29.41;98952.81;447089;1241;139405;-69
2024/04/09 10:03:40;;;;;;;4.30;1.90;;;;;;;29.56;30.07;98940.20;449102;1240;139624;-61
2024/04/09 10:13:52;;;;;;;3.90;1.90;;;;;;;29.13;30.60;98938.19;449276;1238;138979;-61
2024/04/09 10:23:59;;;;;;;4.90;1.60;;;;;;;28.59;30.96;98930.99;449426;1236;139000;-61
2024/04/09 10:34:05;;;;;;;5.90;3.00;;;;;;;28.13;31.50;98929.81;448700;1240;139957;-58
2024/04/09 10:44:11;;;;;;;3.30;2.50;;;;;;;27.69;31.81;98926.36;449001;1238;141365;-57
2024/04/09 10:54:15;;;;;;;1.50;1.10;;;;;;;27.32;32.18;98925.50;449248;1240;139173;-62
2024/04/09 11:04:20;;;;;;;5.20;2.10;;;;;;;27.18;32.73;98915.63;461128;1236;139966;-60
2024/04/09 11:14:25;;;;;;;7.00;1.50;;;;;;;27.28;33.03;98907.52;460917;1236;138972;-64
2024/04/09 11:24:29;;;;;;;2.60;2.10;;;;;;;27.26;33.32;98892.52;461464;1238;139368;-64
2024/04/09 11:34:33;;;;;;;3.40;2.80;;;;;;;27.15;33.44;98885.59;461318;1236;139887;-63
2024/04/09 11:44:37;;;;;;;6.10;2.10;;;;;;;27.03;33.53;98871.27;461477;1240;139221;-57
2024/04/09 11:54:40;;;;;;;4.30;2.20;;;;;;;27.02;33.71;98864.23;461319;1236;139506;-58
2024/04/09 12:04:43;;;;;;;3.00;1.30;;;;;;;-97.00;5.88;19771.25;458327;1237;1002298;-56
2024/04/09 12:14:46;;;;;;;2.20;1.30;;;;;;;-128.00;-1.00;-1.00;453360;1240;5169988;-57
2024/04/09 12:24:50;;;;;;;3.00;1.30;;;;;;;-128.00;-1.00;-1.00;457351;1239;1003949;-51
2024/04/09 12:34:53;;;;;;;2.50;1.70;;;;;;;-128.00;-1.00;-1.00;457467;1237;1004319;-53
2024/04/09 12:44:57;;;;;;;2.70;1.50;;;;;;;-128.00;-1.00;-1.00;457330;1238;1061500;-51
2024/04/09 12:55:00;;;;;;;4.50;1.40;;;;;;;-128.00;-1.00;-1.00;457351;1240;1004109;-57
2024/04/09 13:05:06;;;;;;;4.90;1.50;;;;;;;-128.00;-1.00;-1.00;457578;1236;1059232;-54
2024/04/09 19:53:21;;;;;;;7.70;4.70;;;;;;;19.44;47.63;98884.80;438193;1267;137013;-57
2024/04/09 20:03:43;;;;;;;7.10;4.50;;;;;;;19.19;48.61;98886.34;446299;1250;138366;-58
2024/04/09 20:13:46;;;;;;;8.20;6.00;;;;;;;18.99;49.54;98892.80;446198;1248;137992;-57
2024/04/09 20:23:50;;;;;;;8.50;4.60;;;;;;;18.72;50.96;98900.81;447195;1248;139107;-58
2024/04/09 20:33:54;;;;;;;10.90;5.40;;;;;;;18.39;51.91;98902.36;445799;1248;138085;-58
2024/04/09 20:43:58;;;;;;;6.00;3.00;;;;;;;18.12;53.00;98911.67;449063;1240;138041;-59
2024/04/09 20:54:01;;;;;;;4.50;3.80;;;;;;;17.87;53.71;98910.73;449246;1241;138674;-61
2024/04/09 21:04:07;;;;;;;13.50;4.90;;;;;;;17.64;54.74;98912.70;449367;1239;138082;-61
2024/04/09 21:14:11;;;;;;;9.00;4.70;;;;;;;17.43;55.40;98906.09;448704;1241;138520;-62
2024/04/09 21:24:18;;;;;;;6.50;4.80;;;;;;;17.24;56.48;98910.90;447832;1241;141385;-62
2024/04/09 21:34:21;;;;;;;6.60;4.20;;;;;;;17.02;57.08;98911.87;447575;1241;138900;-58
2024/04/09 21:44:25;;;;;;;7.40;4.10;;;;;;;16.79;57.65;98924.77;447775;1240;138372;-57
2024/04/09 21:54:29;;;;;;;5.30;4.40;;;;;;;16.59;58.80;98930.55;448797;1233;139043;-58
2024/04/09 22:04:33;;;;;;;8.10;4.70;;;;;;;16.37;59.62;98935.36;450218;1237;139478;-56
2024/04/09 22:14:36;;;;;;;6.50;4.60;;;;;;;16.13;60.18;98934.38;462914;1235;139685;-57
2024/04/09 22:24:39;;;;;;;9.50;6.60;;;;;;;15.99;60.38;98934.17;451384;1235;138450;-57
2024/04/09 22:34:43;;;;;;;7.20;4.00;;;;;;;15.95;60.51;98935.04;450605;1238;140059;-58
2024/04/09 22:44:46;;;;;;;7.80;4.30;;;;;;;15.84;61.24;98942.83;451017;1236;138956;-58
2024/04/09 22:54:52;;;;;;;9.90;4.20;;;;;;;15.62;62.20;98947.51;450052;1237;139072;-59
2024/04/09 23:04:56;;;;;;;4.80;4.30;;;;;;;15.38;62.98;98947.33;450720;1236;139187;-58
2024/04/09 23:15:00;;;;;;;7.30;4.50;;;;;;;15.19;63.79;98949.02;451225;1237;139522;-57
2024/04/09 23:25:05;;;;;;;11.10;4.00;;;;;;;15.00;64.34;98943.94;450822;1236;139241;-58
2024/04/09 23:35:08;;;;;;;12.10;5.90;;;;;;;14.87;65.01;98952.00;449803;1237;139119;-58
2024/04/09 23:45:12;;;;;;;9.90;5.30;;;;;;;14.69;65.73;98965.77;448806;1236;139179;-59
2024/04/09 23:55:17;;;;;;;11.90;4.90;;;;;;;14.49;66.46;98972.67;448327;1236;139038;-58
